createdAt,value
2022-11-30T00:01:23.627Z,47.78
2022-11-30T00:03:55.073Z,47.10
2022-11-30T00:06:23.621Z,45.97
2022-11-30T00:08:54.058Z,45.72
2022-11-30T00:11:22.559Z,45.50
2022-11-30T00:13:50.569Z,45.63
2022-11-30T00:16:18.094Z,45.60
2022-11-30T00:18:46.471Z,45.17
2022-11-30T00:21:14.913Z,44.65
2022-11-30T00:23:43.570Z,45.15
2022-11-30T00:26:13.274Z,47.75
2022-11-30T00:28:41.245Z,46.25
2022-11-30T00:31:11.939Z,47.83
2022-11-30T00:33:39.806Z,44.83
2022-11-30T00:36:12.028Z,45.78
2022-11-30T00:38:39.454Z,46.97
2022-11-30T00:41:07.785Z,47.03
2022-11-30T00:43:35.143Z,45.72
2022-11-30T00:46:02.400Z,48.28
2022-11-30T00:48:29.815Z,46.10
2022-11-30T00:50:56.979Z,47.17
2022-11-30T00:53:24.438Z,45.72
2022-11-30T00:55:51.698Z,46.50
2022-11-30T00:58:19.746Z,45.58
2022-11-30T01:00:46.984Z,45.40
2022-11-30T01:03:14.782Z,47.75
2022-11-30T01:05:43.343Z,45.38
2022-11-30T01:08:11.422Z,44.37
2022-11-30T01:10:40.181Z,48.25
2022-11-30T01:13:08.109Z,46.30
2022-11-30T01:15:43.666Z,45.80
2022-11-30T01:18:12.525Z,46.88
2022-11-30T01:20:43.340Z,48.35
2022-11-30T01:23:11.334Z,48.28
2022-11-30T01:25:38.915Z,47.50
2022-11-30T01:28:06.286Z,48.67
2022-11-30T01:30:33.705Z,49.42
2022-11-30T01:33:05.043Z,47.15
2022-11-30T01:35:32.315Z,49.65
2022-11-30T01:37:59.522Z,48.35
2022-11-30T01:40:26.913Z,48.08
2022-11-30T01:42:54.806Z,49.00
2022-11-30T01:45:22.107Z,48.25
2022-11-30T01:47:52.996Z,49.03
2022-11-30T01:50:30.473Z,47.83
2022-11-30T01:52:58.326Z,48.05
2022-11-30T01:55:36.338Z,49.85
2022-11-30T01:58:23.718Z,49.25
2022-11-30T02:00:51.315Z,50.05
2022-11-30T02:03:39.991Z,50.05
2022-11-30T02:06:07.571Z,48.90
2022-11-30T02:08:35.176Z,48.05
2022-11-30T02:11:05.645Z,48.13
2022-11-30T02:13:58.682Z,49.15
2022-11-30T02:17:02.160Z,51.30
2022-11-30T02:19:53.420Z,48.72
2022-11-30T02:22:31.674Z,49.35
2022-11-30T02:25:07.665Z,47.72
2022-11-30T02:27:49.750Z,49.53
2022-11-30T02:30:21.658Z,47.15
2022-11-30T02:33:16.997Z,49.03
2022-11-30T02:35:51.634Z,48.13
2022-11-30T02:38:23.055Z,48.95
2022-11-30T02:40:50.433Z,49.42
2022-11-30T02:43:19.310Z,48.75
2022-11-30T02:46:08.091Z,49.47
2022-11-30T02:48:45.749Z,50.88
2022-11-30T02:51:16.051Z,49.85
2022-11-30T02:53:44.030Z,50.88
2022-11-30T02:56:11.238Z,52.65
2022-11-30T02:58:38.465Z,51.45
2022-11-30T03:01:05.781Z,51.50
2022-11-30T03:03:33.017Z,51.03
2022-11-30T03:06:00.308Z,50.53
2022-11-30T03:08:27.509Z,50.55
2022-11-30T03:10:54.673Z,51.60
2022-11-30T03:13:22.015Z,49.65
2022-11-30T03:15:49.427Z,50.65
2022-11-30T03:18:16.683Z,51.83
2022-11-30T03:20:44.210Z,50.42
2022-11-30T03:23:11.439Z,50.33
2022-11-30T03:25:38.748Z,50.35
2022-11-30T03:28:06.207Z,50.35
2022-11-30T03:30:33.479Z,51.30
2022-11-30T03:33:00.739Z,48.63
2022-11-30T03:35:27.915Z,48.92
2022-11-30T03:37:55.103Z,49.30
2022-11-30T03:40:22.278Z,48.85
2022-11-30T03:42:49.428Z,51.03
2022-11-30T03:45:16.714Z,47.25
2022-11-30T03:47:45.575Z,49.28
2022-11-30T03:50:12.738Z,48.92
2022-11-30T03:52:39.970Z,49.75
2022-11-30T03:55:07.726Z,49.22
2022-11-30T03:57:34.923Z,47.75
2022-11-30T04:00:02.139Z,47.58
2022-11-30T04:02:29.357Z,49.05
2022-11-30T04:04:56.577Z,47.83
2022-11-30T04:07:23.962Z,48.75
2022-11-30T04:09:51.158Z,48.33
2022-11-30T04:12:18.402Z,48.40
2022-11-30T04:14:45.807Z,47.42
2022-11-30T04:17:15.306Z,49.58
2022-11-30T04:19:42.555Z,48.45
2022-11-30T04:22:09.794Z,49.28
2022-11-30T04:24:37.022Z,49.10
2022-11-30T04:27:04.284Z,47.85
2022-11-30T04:29:31.483Z,48.92
2022-11-30T04:31:58.725Z,49.70
2022-11-30T04:34:28.433Z,47.72
2022-11-30T04:37:00.112Z,48.70
2022-11-30T04:39:27.737Z,49.78
2022-11-30T04:41:54.945Z,48.05
2022-11-30T04:44:22.246Z,48.95
2022-11-30T04:46:49.446Z,48.03
2022-11-30T04:49:16.661Z,50.13
2022-11-30T04:51:43.901Z,47.33
2022-11-30T04:54:11.131Z,47.55
2022-11-30T04:56:38.303Z,47.20
2022-11-30T04:59:05.493Z,48.45
2022-11-30T05:01:32.744Z,47.38
2022-11-30T05:04:00.316Z,47.40
2022-11-30T05:06:30.926Z,47.13
2022-11-30T05:08:58.132Z,45.67
2022-11-30T05:11:25.319Z,48.03
2022-11-30T05:13:52.502Z,47.95
2022-11-30T05:16:22.550Z,47.80
2022-11-30T05:18:49.743Z,48.00
2022-11-30T05:21:18.137Z,48.10
2022-11-30T05:23:47.073Z,47.83
2022-11-30T05:26:14.700Z,46.95
2022-11-30T05:28:42.075Z,48.17
2022-11-30T05:31:09.353Z,46.33
2022-11-30T05:33:36.551Z,48.22
2022-11-30T05:36:10.198Z,47.58
2022-11-30T05:38:37.977Z,45.80
2022-11-30T05:41:05.213Z,46.22
2022-11-30T05:43:32.381Z,46.90
2022-11-30T05:46:01.034Z,48.55
2022-11-30T05:48:28.290Z,47.88
2022-11-30T05:50:55.837Z,48.35
2022-11-30T05:53:23.216Z,49.63
2022-11-30T05:55:50.394Z,47.35
2022-11-30T05:58:17.626Z,46.90
2022-11-30T06:00:44.910Z,48.63
2022-11-30T06:03:12.168Z,48.40
2022-11-30T06:05:39.686Z,47.92
2022-11-30T06:08:06.929Z,48.25
2022-11-30T06:10:34.128Z,47.97
2022-11-30T06:13:09.826Z,47.25
2022-11-30T06:15:38.142Z,48.10
2022-11-30T06:18:06.185Z,47.05
2022-11-30T06:20:33.788Z,46.97
2022-11-30T06:23:01.050Z,48.90
2022-11-30T06:25:28.504Z,47.45
2022-11-30T06:27:55.787Z,48.17
2022-11-30T06:30:23.184Z,47.95
2022-11-30T06:32:51.466Z,45.42
2022-11-30T06:35:19.064Z,48.50
2022-11-30T06:37:46.437Z,47.17
2022-11-30T06:40:14.251Z,46.80
2022-11-30T06:42:41.713Z,47.28
2022-11-30T06:45:09.303Z,47.40
2022-11-30T06:47:36.748Z,47.45
2022-11-30T06:50:04.831Z,47.83
2022-11-30T06:52:32.381Z,47.50
2022-11-30T06:54:59.651Z,46.75
2022-11-30T06:57:28.290Z,46.40
2022-11-30T06:59:55.932Z,46.50
2022-11-30T07:02:23.461Z,46.20
2022-11-30T07:04:50.908Z,46.17
2022-11-30T07:07:18.282Z,47.90
2022-11-30T07:09:45.533Z,46.95
2022-11-30T07:12:15.988Z,46.25
2022-11-30T07:14:43.233Z,47.83
2022-11-30T07:17:12.853Z,46.92
2022-11-30T07:19:40.110Z,50.55
2022-11-30T07:22:07.315Z,45.97
2022-11-30T07:24:53.070Z,46.60
2022-11-30T07:27:20.430Z,44.50
2022-11-30T07:29:48.875Z,46.53
2022-11-30T07:32:16.081Z,47.88
2022-11-30T07:34:43.607Z,47.67
2022-11-30T07:37:11.379Z,46.28
2022-11-30T07:39:38.550Z,46.00
2022-11-30T07:42:05.757Z,46.70
2022-11-30T07:44:33.038Z,46.35
2022-11-30T07:47:01.045Z,47.70
2022-11-30T07:49:28.373Z,46.15
2022-11-30T07:51:55.558Z,46.70
2022-11-30T07:54:22.818Z,45.42
2022-11-30T07:56:50.160Z,46.60
2022-11-30T07:59:17.801Z,45.85
2022-11-30T08:01:45.157Z,45.05
2022-11-30T08:04:13.964Z,45.08
2022-11-30T08:06:41.402Z,46.75
2022-11-30T08:09:10.872Z,44.65
2022-11-30T08:14:05.534Z,42.90
2022-11-30T08:16:37.887Z,43.47
2022-11-30T08:19:05.268Z,44.63
2022-11-30T08:21:32.481Z,45.15
2022-11-30T08:23:59.918Z,43.97
2022-11-30T08:26:30.124Z,45.38
2022-11-30T08:28:58.738Z,41.60
2022-11-30T08:31:28.733Z,42.92
2022-11-30T08:34:00.989Z,42.58
2022-11-30T08:36:29.698Z,43.00
2022-11-30T08:39:02.282Z,44.95
2022-11-30T08:41:29.602Z,42.03
2022-11-30T08:43:56.809Z,44.58
2022-11-30T08:49:21.529Z,40.53
2022-11-30T08:54:40.076Z,39.08
2022-11-30T08:57:07.252Z,40.17
2022-11-30T08:59:34.440Z,37.88
2022-11-30T09:02:01.677Z,40.50
2022-11-30T09:04:28.839Z,38.55
2022-11-30T09:06:59.024Z,36.03
2022-11-30T09:09:26.482Z,39.42
2022-11-30T09:11:53.761Z,38.58
2022-11-30T09:14:20.989Z,37.05
2022-11-30T09:16:48.190Z,36.63
2022-11-30T09:19:15.363Z,36.83
2022-11-30T09:21:45.416Z,36.92
2022-11-30T09:24:16.928Z,36.30
2022-11-30T09:26:44.089Z,37.22
2022-11-30T09:29:11.274Z,35.55
2022-11-30T09:31:38.462Z,35.17
2022-11-30T09:34:05.635Z,33.83
2022-11-30T09:36:33.998Z,33.20
2022-11-30T09:39:01.331Z,34.90
2022-11-30T09:42:06.995Z,34.35
2022-11-30T09:44:58.523Z,31.95
2022-11-30T09:48:07.942Z,31.52
2022-11-30T09:50:47.358Z,31.73
2022-11-30T09:55:56.964Z,30.92
2022-11-30T09:58:39.705Z,32.65
2022-11-30T10:01:13.538Z,31.38
2022-11-30T10:03:41.847Z,30.55
2022-11-30T10:06:15.411Z,31.05
2022-11-30T10:09:00.956Z,30.30
2022-11-30T10:11:45.284Z,30.77
2022-11-30T10:14:49.622Z,28.33
2022-11-30T10:17:33.045Z,28.63
2022-11-30T10:20:40.878Z,27.83
2022-11-30T10:23:07.934Z,26.08
2022-11-30T10:25:56.111Z,28.30
2022-11-30T10:28:47.727Z,26.77
2022-11-30T10:31:16.932Z,28.30
2022-11-30T10:33:48.235Z,27.80
2022-11-30T10:36:41.983Z,27.90
2022-11-30T10:39:25.422Z,25.20
2022-11-30T10:42:00.332Z,27.85
2022-11-30T10:44:31.368Z,26.08
2022-11-30T10:47:26.103Z,28.00
2022-11-30T10:49:53.691Z,25.98
2022-11-30T10:52:35.868Z,26.38
2022-11-30T10:55:05.091Z,25.10
2022-11-30T10:57:33.405Z,24.88
2022-11-30T11:00:03.776Z,25.35
2022-11-30T11:02:43.469Z,26.70
2022-11-30T11:05:15.351Z,24.60
2022-11-30T11:08:06.465Z,25.65
2022-11-30T11:10:36.830Z,25.17
2022-11-30T11:13:05.223Z,25.25
2022-11-30T11:15:36.279Z,24.27
2022-11-30T11:18:26.180Z,25.40
2022-11-30T11:21:20.913Z,23.83
2022-11-30T11:23:56.065Z,24.77
2022-11-30T11:26:28.624Z,24.33
2022-11-30T11:28:57.321Z,24.77
2022-11-30T11:31:46.120Z,25.67
2022-11-30T11:34:33.582Z,25.95
2022-11-30T11:37:24.276Z,26.17
2022-11-30T11:40:16.255Z,29.23
2022-11-30T11:42:49.196Z,29.60
2022-11-30T11:45:31.246Z,32.75
2022-11-30T11:48:04.226Z,34.03
2022-11-30T11:53:24.895Z,35.13
2022-11-30T11:56:03.415Z,35.15
2022-11-30T11:58:47.815Z,42.05
2022-11-30T12:01:42.656Z,38.05
2022-11-30T12:04:35.203Z,38.30
2022-11-30T12:07:12.544Z,37.75
2022-11-30T12:09:53.363Z,37.22
2022-11-30T12:12:20.616Z,38.05
2022-11-30T12:14:48.145Z,36.83
2022-11-30T12:17:38.366Z,38.05
2022-11-30T12:20:31.098Z,38.47
2022-11-30T12:23:27.489Z,38.25
2022-11-30T12:26:20.531Z,39.30
2022-11-30T12:29:21.461Z,38.00
2022-11-30T12:32:01.590Z,37.42
2022-11-30T12:35:14.614Z,37.97
2022-11-30T12:37:50.564Z,39.63
2022-11-30T12:40:30.365Z,37.75
2022-11-30T12:43:19.328Z,38.22
2022-11-30T12:45:47.197Z,38.35
2022-11-30T12:48:35.815Z,39.78
2022-11-30T12:51:10.406Z,37.28
2022-11-30T12:53:53.306Z,38.55
2022-11-30T12:56:46.188Z,36.53
2022-11-30T12:59:37.068Z,37.92
2022-11-30T13:02:42.006Z,37.75
2022-11-30T13:05:13.243Z,36.85
2022-11-30T13:07:52.778Z,37.92
2022-11-30T13:10:27.262Z,38.00
2022-11-30T13:12:55.988Z,37.92
2022-11-30T13:15:26.031Z,38.35
2022-11-30T13:17:54.283Z,38.05
2022-11-30T13:20:41.984Z,38.58
2022-11-30T13:23:11.210Z,39.25
2022-11-30T13:28:41.729Z,38.63
2022-11-30T13:31:22.491Z,39.50
2022-11-30T13:33:56.022Z,38.75
2022-11-30T13:36:39.986Z,39.83
2022-11-30T13:39:23.300Z,40.05
2022-11-30T13:42:10.479Z,39.83
2022-11-30T13:44:42.598Z,38.92
2022-11-30T13:47:30.049Z,37.88
2022-11-30T13:49:59.824Z,37.25
2022-11-30T13:52:58.504Z,38.95
2022-11-30T13:55:56.392Z,40.03
2022-11-30T13:58:24.463Z,43.05
2022-11-30T14:01:26.926Z,42.03
2022-11-30T14:04:26.796Z,41.63
2022-11-30T14:06:56.353Z,42.75
2022-11-30T14:09:57.403Z,44.53
2022-11-30T14:12:37.492Z,43.13
2022-11-30T14:15:31.752Z,46.97
2022-11-30T14:17:59.509Z,51.47
2022-11-30T14:20:37.513Z,49.92
2022-11-30T14:23:13.539Z,49.00
2022-11-30T14:25:46.492Z,51.63
2022-11-30T14:28:17.486Z,51.60
2022-11-30T14:30:45.066Z,50.78
2022-11-30T14:33:22.730Z,51.90
2022-11-30T14:35:54.517Z,50.28
2022-11-30T14:38:27.388Z,50.55
2022-11-30T14:40:55.045Z,50.53
2022-11-30T14:43:22.320Z,50.67
2022-11-30T14:46:07.257Z,50.97
2022-11-30T14:48:37.461Z,52.13
2022-11-30T14:51:04.693Z,54.00
2022-11-30T14:53:36.968Z,52.42
2022-11-30T14:56:26.039Z,52.17
2022-11-30T14:59:31.068Z,51.13
2022-11-30T15:02:00.605Z,52.58
2022-11-30T15:04:28.668Z,53.47
2022-11-30T15:06:56.601Z,53.55
2022-11-30T15:09:29.231Z,51.92
2022-11-30T15:11:56.783Z,54.88
2022-11-30T15:14:27.215Z,53.22
2022-11-30T15:16:56.997Z,55.25
2022-11-30T15:19:32.473Z,52.58
2022-11-30T15:22:00.018Z,51.95
2022-11-30T15:24:29.386Z,50.92
2022-11-30T15:27:11.325Z,51.53
2022-11-30T15:29:41.324Z,51.63
2022-11-30T15:32:16.943Z,53.47
2022-11-30T15:34:56.856Z,54.78
2022-11-30T15:37:32.770Z,56.15
2022-11-30T15:40:02.063Z,55.08
2022-11-30T15:42:39.998Z,54.88
2022-11-30T15:45:31.645Z,52.50
2022-11-30T15:48:03.448Z,55.08
2022-11-30T15:50:37.667Z,54.33
2022-11-30T15:53:24.549Z,55.63
2022-11-30T15:55:57.560Z,56.88
2022-11-30T15:58:46.543Z,55.28
2022-11-30T16:01:25.034Z,57.47
2022-11-30T16:04:03.883Z,57.58
2022-11-30T16:06:47.881Z,58.53
2022-11-30T16:09:32.273Z,56.30
2022-11-30T16:12:01.071Z,56.92
2022-11-30T16:14:28.317Z,60.83
2022-11-30T16:16:55.782Z,58.03
2022-11-30T16:19:23.205Z,57.03
2022-11-30T16:21:50.842Z,58.83
2022-11-30T16:24:18.211Z,60.28
2022-11-30T16:26:52.892Z,58.65
2022-11-30T16:29:20.686Z,56.65
2022-11-30T16:31:48.064Z,54.90
2022-11-30T16:34:15.379Z,58.65
2022-11-30T16:36:42.874Z,55.63
2022-11-30T16:39:12.288Z,54.78
2022-11-30T16:41:39.618Z,57.38
2022-11-30T16:44:13.468Z,58.35
2022-11-30T16:46:40.625Z,53.70
2022-11-30T16:49:07.805Z,55.42
2022-11-30T16:51:36.029Z,54.05
2022-11-30T16:54:03.836Z,56.03
2022-11-30T16:56:30.996Z,55.88
2022-11-30T16:58:58.172Z,54.25
2022-11-30T17:01:35.474Z,55.90
2022-11-30T17:04:24.221Z,55.00
2022-11-30T17:06:54.703Z,53.65
2022-11-30T17:09:24.582Z,52.65
2022-11-30T17:11:52.089Z,53.08
2022-11-30T17:14:20.906Z,54.33
2022-11-30T17:16:48.991Z,55.05
2022-11-30T17:19:17.391Z,56.10
2022-11-30T17:21:48.465Z,53.63
2022-11-30T17:24:16.288Z,52.88
2022-11-30T17:26:49.776Z,54.28
2022-11-30T17:29:16.978Z,51.03
2022-11-30T17:31:46.247Z,52.08
2022-11-30T17:34:13.454Z,52.40
2022-11-30T17:36:40.653Z,53.20
2022-11-30T17:39:08.701Z,53.65
2022-11-30T17:41:36.119Z,52.85
2022-11-30T17:44:03.459Z,51.20
2022-11-30T17:46:30.649Z,52.28
2022-11-30T17:48:57.845Z,50.05
2022-11-30T17:51:25.381Z,49.92
2022-11-30T17:53:52.624Z,49.60
2022-11-30T17:56:20.227Z,49.88
2022-11-30T17:58:49.476Z,51.88
2022-11-30T18:01:17.639Z,49.17
2022-11-30T18:03:45.544Z,51.15
2022-11-30T18:06:12.979Z,50.78
2022-11-30T18:08:40.242Z,51.65
2022-11-30T18:11:16.768Z,54.95
2022-11-30T18:13:43.937Z,52.53
2022-11-30T18:16:19.488Z,51.47
2022-11-30T18:18:48.515Z,49.40
2022-11-30T18:23:44.301Z,49.58
2022-11-30T18:26:14.259Z,49.63
2022-11-30T18:28:41.788Z,51.30
2022-11-30T18:31:09.314Z,50.40
2022-11-30T18:33:37.391Z,48.75
2022-11-30T18:36:08.818Z,50.90
2022-11-30T18:38:38.245Z,49.75
2022-11-30T18:41:06.585Z,50.05
2022-11-30T18:43:34.828Z,50.10
2022-11-30T18:46:03.844Z,50.17
2022-11-30T18:48:33.166Z,49.45
2022-11-30T18:51:14.261Z,48.38
2022-11-30T18:53:41.849Z,47.78
2022-11-30T18:56:21.900Z,47.95
2022-11-30T18:58:49.356Z,49.05
2022-11-30T19:01:18.924Z,48.63
2022-11-30T19:03:54.220Z,47.17
2022-11-30T19:06:21.738Z,50.97
2022-11-30T19:08:49.120Z,48.80
2022-11-30T19:11:17.362Z,47.33
2022-11-30T19:13:45.203Z,49.55
2022-11-30T19:16:15.697Z,49.70
2022-11-30T19:18:45.021Z,49.22
2022-11-30T19:21:14.909Z,48.67
2022-11-30T19:23:42.159Z,47.95
2022-11-30T19:26:10.263Z,50.40
2022-11-30T19:28:38.390Z,47.08
2022-11-30T19:31:10.957Z,49.22
2022-11-30T19:33:40.201Z,48.45
2022-11-30T19:36:09.039Z,48.78
2022-11-30T19:38:36.282Z,49.20
2022-11-30T19:41:07.793Z,46.67
2022-11-30T19:43:35.486Z,47.00
2022-11-30T19:46:06.281Z,47.65
2022-11-30T19:48:34.193Z,46.47
2022-11-30T19:51:10.943Z,47.78
2022-11-30T19:56:13.853Z,45.13
2022-11-30T19:58:42.351Z,46.15
2022-11-30T20:01:13.414Z,46.77
2022-11-30T20:03:40.817Z,48.13
2022-11-30T20:06:08.134Z,50.50
2022-11-30T20:08:36.915Z,51.08
2022-11-30T20:11:12.301Z,50.38
2022-11-30T20:13:39.547Z,47.17
2022-11-30T20:16:12.213Z,46.90
2022-11-30T20:18:45.697Z,44.55
2022-11-30T20:21:19.169Z,47.53
2022-11-30T20:23:47.361Z,45.45
2022-11-30T20:26:20.542Z,44.90
2022-11-30T20:28:49.130Z,42.08
2022-11-30T20:31:18.385Z,44.80
2022-11-30T20:33:45.893Z,46.33
2022-11-30T20:36:13.783Z,46.20
2022-11-30T20:38:41.458Z,46.08
2022-11-30T20:41:11.949Z,47.15
2022-11-30T20:43:39.324Z,45.65
2022-11-30T20:46:33.935Z,48.78
2022-11-30T20:49:02.107Z,45.58
2022-11-30T20:51:36.300Z,46.90
2022-11-30T20:54:06.466Z,44.33
2022-11-30T20:56:36.556Z,47.90
2022-11-30T20:59:06.312Z,47.22
2022-11-30T21:01:33.827Z,44.88
2022-11-30T21:04:01.343Z,47.53
2022-11-30T21:06:29.919Z,47.42
2022-11-30T21:08:57.617Z,50.27
2022-11-30T21:11:25.008Z,46.92
2022-11-30T21:13:52.686Z,48.60
2022-11-30T21:16:27.120Z,47.33
2022-11-30T21:18:56.441Z,48.53
2022-11-30T21:21:25.978Z,43.40
2022-11-30T21:23:53.508Z,44.55
2022-11-30T21:26:24.286Z,48.20
2022-11-30T21:28:55.789Z,44.28
2022-11-30T21:31:23.905Z,46.80
2022-11-30T21:33:53.660Z,43.72
2022-11-30T21:36:22.067Z,45.65
2022-11-30T21:38:58.168Z,45.72
2022-11-30T21:41:30.346Z,45.22
2022-11-30T21:43:58.658Z,43.92
2022-11-30T21:46:26.195Z,45.25
2022-11-30T21:48:53.453Z,46.30
2022-11-30T21:51:23.459Z,45.28
2022-11-30T21:53:53.107Z,46.20
2022-11-30T21:56:22.729Z,47.05
2022-11-30T21:58:50.513Z,47.95
2022-11-30T22:01:23.125Z,46.88
2022-11-30T22:03:50.832Z,46.65
2022-11-30T22:06:19.468Z,46.53
2022-11-30T22:08:47.292Z,48.60
2022-11-30T22:11:20.201Z,46.70
2022-11-30T22:13:52.526Z,45.50
2022-11-30T22:16:21.165Z,45.28
2022-11-30T22:18:48.701Z,43.75
2022-11-30T22:21:17.956Z,44.63
2022-11-30T22:23:56.344Z,44.72
2022-11-30T22:26:26.083Z,46.25
2022-11-30T22:28:57.976Z,47.03
2022-11-30T22:31:30.399Z,46.85
2022-11-30T22:33:58.357Z,44.95
2022-11-30T22:36:28.143Z,46.97
2022-11-30T22:39:00.345Z,49.22
2022-11-30T22:41:28.315Z,47.38
2022-11-30T22:43:56.168Z,46.85
2022-11-30T22:46:28.570Z,45.63
2022-11-30T22:48:58.151Z,47.70
2022-11-30T22:51:28.120Z,45.38
2022-11-30T22:53:56.125Z,45.08
2022-11-30T22:56:25.500Z,45.42
2022-11-30T23:01:35.083Z,44.50
2022-11-30T23:04:04.997Z,46.10
2022-11-30T23:06:32.707Z,46.03
2022-11-30T23:09:00.707Z,45.67
2022-11-30T23:11:29.500Z,48.20
2022-11-30T23:13:56.906Z,46.92
2022-11-30T23:16:24.393Z,47.70
2022-11-30T23:18:54.602Z,47.92
2022-11-30T23:21:29.737Z,47.78
2022-11-30T23:23:59.198Z,46.28
2022-11-30T23:26:28.642Z,46.50
2022-11-30T23:28:58.879Z,45.50
2022-11-30T23:31:34.027Z,43.38
2022-11-30T23:34:05.370Z,44.22
2022-11-30T23:36:33.613Z,45.75
2022-11-30T23:39:03.731Z,46.17
2022-11-30T23:41:31.151Z,44.58
2022-11-30T23:43:58.567Z,46.70
2022-11-30T23:46:29.065Z,45.15
2022-11-30T23:48:56.644Z,43.78
2022-11-30T23:51:24.610Z,45.08
2022-11-30T23:53:51.891Z,47.58
2022-11-30T23:56:20.298Z,46.47
2022-11-30T23:58:48.209Z,48.00
